Pays
Station

 

Conditions  météo  pour  Nueva Ocotepeque  -  Honduras    Honduras

  
19 °C
    
 
 

METAR pour Nueva Ocotepeque :

MHSC 212058Z AUTO 02018G25KT 9999 FEW029 BKN050 19/16 A3010 RMK AO2 DZB1958E01 SLP171 P0000 60000 T01860162 57022 $

 

Voici le bulletin pour Nueva Ocotepeque - Honduras.
 
Le bulletin a été fait il y a 60 minutes, à 20:58 UTC .
Le vent soufflait à la vitesse de 9.3 mètres par seconde avec des rafales jusqu'à 12.9 mètres par seconde de Nord/Nord-est (020°).
 
La température était de 19 °C, avec un point de rosée à 16 °C.
La pression atmosphérique était de 1019 hPa.
L'humidité relative était de 82.7%.
 
Il y avait 1 à 2/8ème de nébulosité à une hauteur de 884 mètres et 5 à 7/8ème de nébulosité à une hauteur de 1524 mètres.
 
La visibilité globale était de supérieure à 10 kilomètres.
 

 
 
 

Pays :   A   B   C   D   E   F   G   H   I   J   K   L   M   N   O   P   Q   R   S   T   U   V   W   Y   Z

 

Partenaires :  Info Météo avec Met'info
Météo Marine avec MeteoMarine.net
Infos Site  |  Infos Légales  |  Crédits  |  Confidentialité
Contactez-nous  |  Ajouter aux favoris
© 2013-2019 METAR - Tous droits réservés